SNOW

Not for real navigation. The accuracy of this data is not assured See disclaimer for more information



ICAO NAME COUNTRY WIND Kt GUST Kt VIS m TEMP/DEW C BARO METAR
KMLP MULLAN PASS VOR ID United States 7 0 400 -2/-3 29.86 KMLP 190653Z AUTO 28007KT 230V330 0.25SM SN FZFG VV002 M02/M03 A2986 RMK AO2 SLP137 P0009 T10221033
RJCW Wakkanai Airport Japan 27 41 400 -4/-7 29.44 RJCW 190639Z 25027G41KT 0400 R08/0375VP2000D BLSN SHSN VV004 M04/M07 Q0997 RMK A2946
UAKD 3 0 700 -7/-8 30.42 UAKD 190630Z 33003KT 0700 R04/0900 SN FZFG VV003 M07/M08 Q1030 R04/420160 TEMPO 0300 SN FZFG VV002 R
UKKK Kyiv Ukraine 3 0 800 -7/-9 30.47 UKKK 190650Z 05003KT 0800 0600S R08/1100D -SN FZFG OVC004 M07/M09 Q1032 R08/810340 TEMPO 0300 -SN FZ
PAKF 3 0 800 0/-2 29.72 PAKF 190640Z AUTO VRB03KT 0.5SM SN FG BKN005 BKN011 OVC016 00/M02 A2972 RMK AO2 P0002 FZRANO RVRNO

Show more